Slave Lake Airport
CYZH : now visible

Airfield :











YOU CAN JOIN US ON...

 
LOGIN :

Register | Disclaimer

   EN    FR    IT 

 









Legend :    VFR   Marginal VFR   IFR   Intensive IFR   Very Intensive IFR
Visi :
Ceiling :
>= 8 km
>= 3000ft
5 to 8 km
1000 to 3000 ft
1500m to 5 km
500 to 1000 ft
800 to 1500m
200 to 500 ft
< 800m
< 200 ft
Symbols :   Thunderstorms  Fog  Heavy snow  Heavy precipitations  Wind > 20 kt






- Airport Elevation : 1912 ft
- IATA code : YZH


CYZH - Slave Lake

CURRENT METAR :
  • 261356Z AUTO 13005KT 3/8SM FZFG VV002 M12/M13 A2990 RMK ICG SLP169

EXPIRED METARs :
  • 261312Z AUTO 13004KT 3/8SM FZFG VV002 M12/M13 A2991 RMK ICG SLP169
  • 261300Z AUTO 15004KT 1/4SM +SN VV002 M11/M12 A2991 RMK ICG SLP170
  • 261249Z AUTO 14008KT 1/2SM FZFG VV002 M11/M12 A2991 RMK ICG INTMT SLP169
  • 261241Z AUTO 13006KT 5/8SM BR VV002 M11/M12 A2991 RMK ICG SLP170
  • 261200Z AUTO 15007KT 3/8SM FZFG VV002 M10/M11 A2992 RMK ICG SLP171
  • 261100Z AUTO 14006KT 3/8SM FZFG VV002 M10/M11 A2992 RMK ICG SLP172

TAF TAF CYZH
Valid from the 26 at 13:00 until the 27 at 01:00 UTC


261238Z 2613/2701 14007KT 1/4SM FZFG VV002
TEMPO 2613/2619 2SM BR BKN004
FM261900 10012KT 2SM BR BKN008
TEMPO 2619/2621 P6SM NSW FEW008
FM262100 10012KT P6SM FEW008 RMK FCST BASED ON AUTO OBS. NXT FCST BY 261900Z



MET'MAP, your aeronautical weather chart ! - Copyright ORBIFLY December 2007 - Disclaimer

ORBIFLY MET'MAP TEAM :

Programming & Development : Alexandra Zaïnal
Concept & original design : Baudouin d'Aumeries
Assistance for programming : Marc-Olivier Méhu
Technical & hardware support : Manuel Goepfert

Contact : metmap@orbifly.com




SOURCES & CREDITS :

   NOAA       Earth
Advisory